Story, AR

2:24 PM CDT on September 01, 2014 (GMT -0500)
Mount Ida | Change Station
CLOSE
Current Station
Airport
Location: Mount Ida,
Elevation: 702 ft
Nearby Weather Stations

Elev 702 ft 34.55 °N, 93.58 °W | Updated 31 minutes ago

Scattered Clouds
Scattered Clouds
86 °F
Feels Like 92 °F
N
6
Wind Variable Wind from Variable

Today
High -- | Low -- °F
--% Chance of Precip.
Yesterday
High -- | Low -- °F
Precip. -- in
6:47 AM 7:40 PM
Waxing Crescent, 43% visible
Pressure 29.93 in
Visibility 10.0 miles
Clouds Scattered Clouds 3700 ft
Scattered Clouds 4500 ft
Heat Index 92 °F
Dew Point 71 °F
Humidity 61%
Rainfall 0.00 in
Snow Depth Not available.
UV 8 out of 12
Pollen 10.90 out of 12
Air Quality Not available.
Flu Activity Not available.
METAR KMWT 011853Z AUTO VRB05KT 10SM SCT037 SCT045 30/22 A2997 RMK AO2 SLP135 T03000217

More Conditions Fewer Conditions

Pressure 29.93 in
Visibility 10.0 miles
Clouds Scattered Clouds 3700 ft
Scattered Clouds 4500 ft
Heat Index 92 °F
Dew Point 71 °F
Humidity 61%
Rainfall 0.00 in
Snow Depth Not available.
UV 8 out of 12
Pollen 10.90 out of 12
Air Quality Not available.
Flu Activity Not available.
METAR KMWT 011853Z AUTO VRB05KT 10SM SCT037 SCT045 30/22 A2997 RMK AO2 SLP135 T03000217

More Conditions Fewer Conditions

10-Day Weather Forecast

Almanac

Astronomy

Sep. 01, 2014 Rise Set
Actual Time 6:47 AM CDT 7:40 PM CDT
Civil Twilight 6:21 AM CDT 8:06 PM CDT
Nautical Twilight 5:51 AM CDT 8:36 PM CDT
Astronomical Twilight 5:19 AM CDT 9:07 PM CDT
Moon 1:17 PM CDT 11:59 PM CDT
Length of Visible Light 13h 44m
Length of Day
12h 53m
Tomorrow will be 2m 5s shorter.
Waxing Crescent, 43% of the Moon is Illuminated
Today
Waxing Crescent
Sep 2
First Quarter
Sep 8
Full
Sep 15
Last Quarter
Sep 24
New

Today's Extremes

State Highs State Lows

Community

WunderPhotos

Upload Photos

1,749,378 photos uploaded!

WunderBlogs® & News

Nearby

Snow Depth

Station Depth Elevation
No new snow has been reported.

Earthquake Activity

City Distance Mag. Time & Date
No recent earthquake activity has been reported nearby.
Minimum magnitude displayed is 2.5.

Coastal Water Temperatures

Place Temperature
No Stations Reporting

Nearby Weather Stations